Cape Lisburne Lrrs Airport
PALU : now visible

Airfield :











YOU CAN JOIN US ON...

 
LOGIN :

Register | Disclaimer

   EN    FR    IT 

 









Legend :    VFR   Marginal VFR   IFR   Intensive IFR   Very Intensive IFR
Visi :
Ceiling :
>= 8 km
>= 3000ft
5 to 8 km
1000 to 3000 ft
1500m to 5 km
500 to 1000 ft
800 to 1500m
200 to 500 ft
< 800m
< 200 ft
Symbols :   Thunderstorms  Fog  Heavy snow  Heavy precipitations  Wind > 20 kt






- Airport Elevation : 16 ft
- IATA code : LUR


PALU - Cape Lisburne Lrrs

CURRENT METAR :
  • 241555Z AUTO 19015G18KT 10SM FEW009 M19/M23 A3030 RMK AO2 SLP260 T11911230

EXPIRED METARs :
  • 241455Z AUTO 21012KT 10SM CLR M20/M26 A3030 RMK AO2 PK WND 21028/1400 SLP262 T12041258 53013
  • 241355Z AUTO 21026KT 10SM CLR M20/M26 A3028 RMK AO2 PK WND 22033/1324 SLP252 T12031256

Expired Forecast.



MET'MAP, your aeronautical weather chart ! - Copyright ORBIFLY December 2007 - Disclaimer

ORBIFLY MET'MAP TEAM :

Programming & Development : Alexandra Zaïnal
Concept & original design : Baudouin d'Aumeries
Assistance for programming : Marc-Olivier Méhu
Technical & hardware support : Manuel Goepfert

Contact : metmap@orbifly.com




SOURCES & CREDITS :

   NOAA       Earth
Advisory